createdAt,value
2022-09-09T00:00:36.512Z,14.95
2022-09-09T00:06:00.276Z,14.89
2022-09-09T00:11:06.054Z,14.86
2022-09-09T00:16:13.622Z,14.83
2022-09-09T00:21:17.286Z,14.82
2022-09-09T00:26:36.886Z,14.79
2022-09-09T00:31:39.802Z,14.74
2022-09-09T00:36:42.516Z,14.72
2022-09-09T00:41:57.166Z,14.69
2022-09-09T00:47:13.611Z,14.63
2022-09-09T00:52:28.574Z,14.59
2022-09-09T00:57:32.407Z,14.57
2022-09-09T01:02:35.025Z,14.55
2022-09-09T01:07:37.595Z,14.54
2022-09-09T01:12:43.129Z,14.53
2022-09-09T01:17:45.769Z,14.53
2022-09-09T01:22:51.345Z,14.49
2022-09-09T01:27:56.583Z,14.46
2022-09-09T01:33:01.537Z,14.41
2022-09-09T01:38:04.440Z,14.37
2022-09-09T01:43:08.492Z,14.36
2022-09-09T01:48:11.078Z,14.29
2022-09-09T01:53:14.590Z,14.25
2022-09-09T01:58:23.019Z,14.20
2022-09-09T02:03:29.691Z,14.17
2022-09-09T02:08:46.274Z,14.12
2022-09-09T02:13:50.219Z,14.09
2022-09-09T02:18:56.936Z,14.07
2022-09-09T02:24:01.397Z,14.05
2022-09-09T02:29:06.265Z,14.04
2022-09-09T02:34:11.943Z,14.04
2022-09-09T02:39:14.721Z,14.01
2022-09-09T02:44:19.004Z,13.91
2022-09-09T02:49:27.389Z,13.79
2022-09-09T02:54:32.181Z,13.67
2022-09-09T02:59:35.038Z,13.55
2022-09-09T03:04:38.663Z,13.43
2022-09-09T03:09:41.246Z,13.31
2022-09-09T03:14:46.546Z,13.85
2022-09-09T03:19:50.752Z,15.19
2022-09-09T03:24:53.455Z,13.95
2022-09-09T03:29:56.982Z,15.14
2022-09-09T03:34:59.541Z,15.09
2022-09-09T03:40:02.638Z,14.07
2022-09-09T03:45:06.790Z,15.24
2022-09-09T03:50:11.579Z,15.89
2022-09-09T03:55:14.151Z,16.08
2022-09-09T04:00:16.836Z,14.42
2022-09-09T04:05:19.758Z,15.02
2022-09-09T04:10:22.663Z,15.76
2022-09-09T04:15:25.254Z,15.96
2022-09-09T04:20:27.816Z,15.99
2022-09-09T04:25:30.957Z,15.31
2022-09-09T04:30:33.659Z,14.52
2022-09-09T04:35:36.975Z,15.27
2022-09-09T04:40:43.908Z,15.44
2022-09-09T04:45:48.791Z,15.45
2022-09-09T04:50:59.055Z,15.29
2022-09-09T04:56:02.890Z,15.07
2022-09-09T05:01:05.762Z,14.79
2022-09-09T05:06:10.739Z,14.49
2022-09-09T05:11:14.694Z,14.43
2022-09-09T05:16:17.984Z,14.52
2022-09-09T05:21:22.666Z,14.66
2022-09-09T05:26:25.682Z,14.58
2022-09-09T05:31:31.609Z,14.81
2022-09-09T05:36:34.362Z,15.07
2022-09-09T05:41:37.149Z,15.03
2022-09-09T05:46:40.620Z,15.13
2022-09-09T05:51:44.082Z,15.02
2022-09-09T05:56:51.455Z,14.78
2022-09-09T06:01:55.546Z,14.68
2022-09-09T06:06:58.326Z,14.61
2022-09-09T06:12:00.921Z,14.63
2022-09-09T06:17:03.632Z,14.67
2022-09-09T06:22:06.629Z,14.60
2022-09-09T06:27:09.282Z,14.43
2022-09-09T06:32:11.849Z,14.54
2022-09-09T06:37:14.528Z,14.35
2022-09-09T06:42:17.219Z,14.43
2022-09-09T06:47:20.336Z,14.53
2022-09-09T06:52:23.234Z,14.81
2022-09-09T06:57:36.962Z,14.74
2022-09-09T07:02:42.202Z,15.07
2022-09-09T07:07:45.101Z,15.11
2022-09-09T07:12:51.444Z,15.13
2022-09-09T07:17:54.979Z,15.26
2022-09-09T07:22:58.153Z,15.41
2022-09-09T07:28:00.870Z,15.13
2022-09-09T07:33:04.432Z,15.22
2022-09-09T07:38:07.812Z,14.80
2022-09-09T07:43:13.333Z,14.66
2022-09-09T07:48:19.945Z,14.66
2022-09-09T07:53:24.196Z,14.84
2022-09-09T07:58:26.794Z,14.90
2022-09-09T08:03:29.612Z,14.70
2022-09-09T08:08:32.512Z,14.61
2022-09-09T08:13:36.244Z,14.93
2022-09-09T08:18:40.254Z,14.94
2022-09-09T08:23:43.597Z,14.82
2022-09-09T08:28:46.442Z,14.93
2022-09-09T08:33:53.175Z,15.09
2022-09-09T08:38:57.646Z,15.47
2022-09-09T08:44:23.344Z,15.61
2022-09-09T08:49:29.015Z,15.75
2022-09-09T08:54:51.699Z,15.55
2022-09-09T08:59:56.983Z,15.36
2022-09-09T09:05:11.929Z,15.04
2022-09-09T09:10:40.989Z,15.27
2022-09-09T09:15:45.592Z,15.36
2022-09-09T09:20:48.901Z,15.50
2022-09-09T09:25:53.514Z,15.44
2022-09-09T09:31:02.730Z,15.58
2022-09-09T09:36:09.494Z,15.48
2022-09-09T09:41:12.457Z,15.64
2022-09-09T09:46:25.038Z,15.66
2022-09-09T09:51:29.284Z,15.86
2022-09-09T09:56:33.611Z,15.87
2022-09-09T10:01:36.956Z,16.03
2022-09-09T10:06:40.895Z,16.18
2022-09-09T10:11:49.380Z,16.14
2022-09-09T10:16:57.347Z,16.16
2022-09-09T10:22:15.470Z,16.14
2022-09-09T10:27:41.510Z,15.96
2022-09-09T10:33:03.033Z,16.02
2022-09-09T10:38:15.094Z,16.20
2022-09-09T10:43:23.506Z,16.39
2022-09-09T10:48:27.543Z,16.58
2022-09-09T10:53:49.379Z,16.62
2022-09-09T10:58:54.764Z,16.62
2022-09-09T11:04:07.776Z,16.44
2022-09-09T11:09:16.026Z,16.07
2022-09-09T11:14:21.825Z,15.99
2022-09-09T11:19:40.770Z,15.97
2022-09-09T11:24:49.098Z,15.83
2022-09-09T11:30:01.956Z,15.92
2022-09-09T11:35:23.296Z,15.95
2022-09-09T11:40:26.665Z,16.09
2022-09-09T11:45:30.347Z,16.09
2022-09-09T11:50:35.367Z,16.28
2022-09-09T11:55:38.298Z,16.42
2022-09-09T12:00:46.268Z,16.04
2022-09-09T12:05:49.593Z,16.07
2022-09-09T12:11:00.686Z,15.93
2022-09-09T12:16:06.303Z,16.09
2022-09-09T12:21:09.020Z,16.30
2022-09-09T12:26:24.716Z,16.27
2022-09-09T12:31:33.926Z,16.17
2022-09-09T12:36:37.142Z,16.17
2022-09-09T12:41:39.771Z,16.11
2022-09-09T12:46:44.521Z,16.31
2022-09-09T12:51:47.384Z,16.19
2022-09-09T12:56:50.869Z,16.21
2022-09-09T13:01:57.895Z,16.54
2022-09-09T13:07:08.279Z,16.65
2022-09-09T13:12:20.797Z,16.60
2022-09-09T13:17:24.841Z,16.58
2022-09-09T13:22:27.441Z,16.52
2022-09-09T13:27:35.466Z,16.89
2022-09-09T13:32:38.162Z,17.10
2022-09-09T13:37:43.831Z,16.83
2022-09-09T13:42:46.643Z,16.72
2022-09-09T13:47:53.431Z,16.66
2022-09-09T13:52:59.426Z,16.83
2022-09-09T13:58:03.230Z,16.94
2022-09-09T14:03:05.957Z,16.92
2022-09-09T14:08:12.727Z,16.85
2022-09-09T14:13:15.954Z,16.92
2022-09-09T14:18:19.232Z,16.98
2022-09-09T14:23:23.194Z,17.09
2022-09-09T14:28:53.891Z,16.97
2022-09-09T14:33:49.370Z,16.79
2022-09-09T14:38:52.068Z,16.54
2022-09-09T14:43:55.088Z,16.54
2022-09-09T14:48:57.849Z,16.71
2022-09-09T14:54:00.881Z,16.78
2022-09-09T14:59:03.886Z,16.73
2022-09-09T15:04:07.180Z,16.51
2022-09-09T15:09:10.056Z,16.42
2022-09-09T15:14:13.249Z,16.20
2022-09-09T15:19:16.222Z,16.52
2022-09-09T15:24:19.333Z,16.80
2022-09-09T15:29:21.906Z,16.79
2022-09-09T15:34:24.508Z,16.80
2022-09-09T15:39:27.122Z,16.91
2022-09-09T15:44:29.825Z,17.25
2022-09-09T15:49:32.417Z,17.13
2022-09-09T15:54:36.401Z,17.01
2022-09-09T15:59:39.050Z,17.05
2022-09-09T16:04:41.672Z,16.82
2022-09-09T16:09:45.167Z,16.83
2022-09-09T16:14:47.976Z,17.10
2022-09-09T16:19:50.609Z,17.05
2022-09-09T16:24:53.701Z,16.75
2022-09-09T16:29:56.301Z,16.87
2022-09-09T16:34:58.838Z,16.78
2022-09-09T16:40:01.746Z,16.76
2022-09-09T16:45:04.949Z,16.82
2022-09-09T16:50:07.803Z,16.79
2022-09-09T16:55:10.375Z,16.67
2022-09-09T17:00:13.082Z,16.72
2022-09-09T17:05:15.836Z,16.89
2022-09-09T17:10:18.845Z,16.86
2022-09-09T17:15:22.355Z,16.78
2022-09-09T17:20:25.003Z,16.61
2022-09-09T17:25:28.217Z,16.52
2022-09-09T17:30:34.845Z,16.40
2022-09-09T17:35:37.709Z,16.48
2022-09-09T17:40:40.239Z,16.44
2022-09-09T17:45:42.803Z,16.60
2022-09-09T17:50:45.369Z,16.18
2022-09-09T17:55:52.484Z,16.43
2022-09-09T18:00:56.059Z,16.48
2022-09-09T18:06:02.905Z,16.16
2022-09-09T18:11:06.457Z,16.19
2022-09-09T18:16:09.971Z,16.54
2022-09-09T18:21:13.269Z,16.41
2022-09-09T18:26:17.222Z,16.31
2022-09-09T18:31:21.378Z,16.41
2022-09-09T18:36:25.778Z,16.48
2022-09-09T18:41:30.171Z,16.48
2022-09-09T18:46:34.897Z,16.22
2022-09-09T18:51:38.274Z,16.35
2022-09-09T18:56:41.535Z,16.54
2022-09-09T19:01:44.843Z,16.56
2022-09-09T19:06:48.274Z,16.56
2022-09-09T19:11:50.866Z,16.54
2022-09-09T19:16:54.239Z,16.60
2022-09-09T19:22:00.205Z,16.86
2022-09-09T19:27:04.471Z,16.73
2022-09-09T19:37:29.911Z,16.56
2022-09-09T19:42:32.521Z,16.70
2022-09-09T19:47:35.412Z,16.51
2022-09-09T19:52:38.941Z,16.20
2022-09-09T19:57:41.630Z,16.12
2022-09-09T20:02:58.067Z,16.22
2022-09-09T20:08:06.792Z,16.14
2022-09-09T20:13:09.388Z,15.85
2022-09-09T20:18:11.959Z,16.04
2022-09-09T20:23:14.565Z,16.22
2022-09-09T20:28:18.560Z,16.21
2022-09-09T20:33:22.231Z,16.11
2022-09-09T20:38:24.828Z,16.22
2022-09-09T20:43:27.373Z,16.13
2022-09-09T20:48:34.635Z,16.28
2022-09-09T20:53:38.046Z,16.31
2022-09-09T20:58:40.816Z,16.25
2022-09-09T21:03:44.739Z,16.28
2022-09-09T21:08:47.318Z,16.43
2022-09-09T21:13:51.346Z,16.49
2022-09-09T21:18:54.006Z,16.61
2022-09-09T21:23:58.488Z,16.74
2022-09-09T21:29:01.151Z,16.42
2022-09-09T21:34:04.472Z,16.57
2022-09-09T21:39:07.162Z,16.34
2022-09-09T21:44:09.859Z,16.40
2022-09-09T21:49:12.743Z,16.27
2022-09-09T21:54:15.359Z,16.17
2022-09-09T21:59:18.162Z,16.31
2022-09-09T22:04:20.753Z,16.44
2022-09-09T22:09:23.868Z,16.75
2022-09-09T22:14:27.489Z,16.71
2022-09-09T22:19:30.189Z,16.38
2022-09-09T22:24:32.995Z,16.05
2022-09-09T22:29:35.896Z,16.43
2022-09-09T22:34:38.551Z,16.30
2022-09-09T22:39:41.642Z,16.27
2022-09-09T22:44:44.403Z,16.37
2022-09-09T22:49:47.154Z,16.29
2022-09-09T22:54:49.689Z,16.19
2022-09-09T22:59:52.262Z,16.32
2022-09-09T23:04:55.103Z,16.17
2022-09-09T23:09:57.700Z,16.43
2022-09-09T23:15:00.308Z,16.37
2022-09-09T23:20:04.304Z,16.00
2022-09-09T23:25:07.046Z,16.39
2022-09-09T23:30:11.599Z,16.60
2022-09-09T23:35:14.212Z,16.56
2022-09-09T23:40:17.156Z,16.69
2022-09-09T23:45:20.301Z,16.75
2022-09-09T23:50:22.875Z,16.40
2022-09-09T23:55:25.576Z,16.37
